Time;durP1;ratioP1;P1;durP2;ratioP2;P2;SDS_P1;SDS_P2;PMS_P1;PMS_P2;Temp;Humidity;BMP_temperature;BMP_pressure;BME280_temperature;BME280_humidity;BME280_pressure;Samples;Min_cycle;Max_cycle;Signal;HPM_P1;HPM_P2
2023/10/29 00:02:09;;;;;;;0.98;0.65;;;;;;;;;;5057067;28;20016;-85
2023/10/29 00:04:37;;;;;;;0.80;0.40;;;;;;;;;;5061268;28;20371;-85
2023/10/29 00:07:03;;;;;;;3.90;0.50;;;;;;;;;;5052638;28;20062;-86
2023/10/29 00:09:28;;;;;;;0.95;0.45;;;;;;;;;;5061543;28;20036;-85
2023/10/29 00:11:54;;;;;;;1.20;0.50;;;;;;;;;;5058073;28;20337;-86
2023/10/29 00:14:19;;;;;;;1.40;0.40;;;;;;;;;;5064801;28;20396;-86
2023/10/29 00:16:44;;;;;;;2.97;0.40;;;;;;;;;;5066220;28;20035;-87
2023/10/29 00:19:09;;;;;;;5.15;0.60;;;;;;;;;;5057882;28;20491;-85
2023/10/29 00:21:35;;;;;;;0.38;0.10;;;;;;;;;;5058792;28;20024;-86
2023/10/29 00:24:00;;;;;;;1.17;0.50;;;;;;;;;;5059142;28;20119;-85
2023/10/29 00:26:25;;;;;;;2.00;0.38;;;;;;;;;;5068187;28;20016;-86
2023/10/29 00:28:50;;;;;;;2.25;0.60;;;;;;;;;;5060904;28;20013;-84
2023/10/29 00:31:16;;;;;;;1.55;0.50;;;;;;;;;;5067279;28;20017;-86
2023/10/29 00:33:41;;;;;;;1.90;0.68;;;;;;;;;;5060118;28;20043;-86
2023/10/29 00:36:07;;;;;;;1.88;0.70;;;;;;;;;;5057005;28;20071;-85
2023/10/29 00:38:32;;;;;;;4.63;0.50;;;;;;;;;;5051163;28;20091;-85
2023/10/29 00:40:57;;;;;;;0.95;0.40;;;;;;;;;;5051946;28;20021;-85
2023/10/29 00:43:23;;;;;;;2.65;0.50;;;;;;;;;;5052106;28;20017;-86
2023/10/29 00:45:51;;;;;;;1.10;0.40;;;;;;;;;;5062776;28;20565;-86
2023/10/29 00:48:17;;;;;;;3.92;0.77;;;;;;;;;;5055075;28;20023;-86
2023/10/29 00:50:42;;;;;;;2.22;0.40;;;;;;;;;;5052384;28;20021;-86
2023/10/29 00:53:10;;;;;;;2.40;0.70;;;;;;;;;;5053080;28;20025;-88
2023/10/29 00:55:36;;;;;;;1.02;0.57;;;;;;;;;;5066555;28;20031;-87
2023/10/29 00:58:01;;;;;;;1.60;0.40;;;;;;;;;;5052576;28;20021;-87
2023/10/29 01:00:27;;;;;;;3.75;0.40;;;;;;;;;;5052671;28;20015;-86
2023/10/29 01:02:52;;;;;;;0.45;0.30;;;;;;;;;;5052466;28;20399;-87
2023/10/29 01:05:17;;;;;;;0.50;0.32;;;;;;;;;;5054959;28;20055;-85
2023/10/29 01:07:46;;;;;;;0.40;0.30;;;;;;;;;;5070579;28;20021;-86
2023/10/29 01:10:11;;;;;;;2.17;0.50;;;;;;;;;;5051651;28;20120;-85
2023/10/29 01:12:38;;;;;;;0.35;0.32;;;;;;;;;;5051708;28;20139;-86
2023/10/29 01:15:04;;;;;;;2.70;0.40;;;;;;;;;;5051370;28;20021;-85
2023/10/29 01:17:29;;;;;;;2.35;0.50;;;;;;;;;;5066690;28;20083;-85
2023/10/29 01:19:58;;;;;;;2.22;0.40;;;;;;;;;;5051516;28;20021;-85
2023/10/29 01:22:24;;;;;;;2.65;0.68;;;;;;;;;;5051366;28;20013;-86
2023/10/29 01:24:49;;;;;;;0.90;0.50;;;;;;;;;;5065609;28;20127;-85
2023/10/29 01:27:15;;;;;;;0.63;0.40;;;;;;;;;;5048223;28;20017;-85
2023/10/29 01:29:40;;;;;;;2.58;0.70;;;;;;;;;;5068776;28;20027;-86
2023/10/29 01:32:06;;;;;;;1.38;0.50;;;;;;;;;;5067921;28;20029;-85
2023/10/29 01:34:31;;;;;;;3.63;0.40;;;;;;;;;;5051561;28;20127;-85
2023/10/29 01:36:56;;;;;;;2.17;0.55;;;;;;;;;;5051552;28;20021;-85
2023/10/29 01:39:22;;;;;;;1.48;0.50;;;;;;;;;;5051206;28;20024;-85
2023/10/29 01:41:47;;;;;;;1.30;0.70;;;;;;;;;;5051048;28;20048;-85
2023/10/29 01:44:13;;;;;;;4.05;0.75;;;;;;;;;;5052413;28;20024;-86
2023/10/29 01:46:38;;;;;;;2.08;0.40;;;;;;;;;;5050952;28;20024;-85
2023/10/29 01:49:07;;;;;;;1.73;0.60;;;;;;;;;;5051093;28;20363;-86
2023/10/29 01:51:32;;;;;;;3.22;0.70;;;;;;;;;;5054185;28;20397;-86
2023/10/29 01:53:57;;;;;;;1.27;0.40;;;;;;;;;;5062245;28;20438;-85
2023/10/29 01:56:23;;;;;;;2.03;0.70;;;;;;;;;;5061357;28;20111;-85
2023/10/29 01:58:48;;;;;;;1.77;0.80;;;;;;;;;;5054451;28;20017;-85
2023/10/29 02:01:14;;;;;;;0.75;0.30;;;;;;;;;;5065153;28;20452;-85
2023/10/29 02:03:39;;;;;;;3.13;0.60;;;;;;;;;;5055739;28;20009;-86
2023/10/29 02:06:13;;;;;;;1.85;0.50;;;;;;;;;;5054545;28;20021;-85
2023/10/29 02:08:39;;;;;;;1.98;0.65;;;;;;;;;;5054336;28;20411;-85
2023/10/29 02:11:04;;;;;;;2.15;0.50;;;;;;;;;;5053659;28;20021;-85
2023/10/29 02:13:32;;;;;;;0.90;0.40;;;;;;;;;;5054178;28;20021;-86
2023/10/29 02:15:57;;;;;;;3.20;0.20;;;;;;;;;;5053997;28;20052;-85
2023/10/29 02:18:22;;;;;;;2.15;0.70;;;;;;;;;;5053731;28;20450;-86
2023/10/29 02:20:48;;;;;;;1.45;0.30;;;;;;;;;;5052788;28;20025;-87
2023/10/29 02:23:13;;;;;;;2.63;0.40;;;;;;;;;;5057969;28;20020;-86
2023/10/29 02:25:38;;;;;;;0.93;0.47;;;;;;;;;;5058371;28;20471;-86
2023/10/29 02:28:03;;;;;;;1.00;0.40;;;;;;;;;;5054008;28;20025;-85
2023/10/29 02:30:28;;;;;;;1.90;0.40;;;;;;;;;;5053799;28;20078;-85
2023/10/29 02:32:54;;;;;;;1.73;0.40;;;;;;;;;;5053628;28;20399;-85
2023/10/29 02:35:20;;;;;;;9.25;0.55;;;;;;;;;;5053354;28;20021;-85
2023/10/29 02:37:46;;;;;;;0.63;0.43;;;;;;;;;;5053312;28;20029;-85
2023/10/29 02:40:12;;;;;;;2.28;0.52;;;;;;;;;;5053731;28;20017;-84
2023/10/29 02:42:37;;;;;;;0.63;0.50;;;;;;;;;;5053668;28;20112;-85
2023/10/29 02:45:03;;;;;;;2.75;0.40;;;;;;;;;;5053394;28;20091;-85
2023/10/29 02:47:31;;;;;;;4.22;0.38;;;;;;;;;;5043363;28;20117;-85
2023/10/29 02:49:56;;;;;;;0.50;0.40;;;;;;;;;;5053201;28;20036;-85
2023/10/29 02:52:21;;;;;;;1.80;0.45;;;;;;;;;;5053398;28;20021;-85
2023/10/29 02:54:48;;;;;;;2.95;0.40;;;;;;;;;;5054557;28;20020;-85
2023/10/29 02:57:13;;;;;;;1.90;0.47;;;;;;;;;;5054735;28;20088;-85
2023/10/29 02:59:39;;;;;;;1.40;0.40;;;;;;;;;;5054533;28;20040;-85
2023/10/29 03:02:04;;;;;;;1.58;0.38;;;;;;;;;;5053245;28;20017;-85
2023/10/29 03:04:29;;;;;;;0.77;0.30;;;;;;;;;;5053173;28;20013;-84
2023/10/29 03:06:55;;;;;;;2.00;0.65;;;;;;;;;;5052996;28;20021;-84
2023/10/29 03:09:20;;;;;;;1.52;0.50;;;;;;;;;;5052873;28;20016;-85
2023/10/29 03:11:45;;;;;;;2.10;0.32;;;;;;;;;;5052952;28;20028;-85
2023/10/29 03:14:10;;;;;;;1.60;0.47;;;;;;;;;;5052682;28;20048;-85
2023/10/29 03:16:36;;;;;;;0.70;0.40;;;;;;;;;;5053368;28;20020;-85
2023/10/29 03:19:01;;;;;;;0.60;0.40;;;;;;;;;;5051417;28;20048;-85
2023/10/29 03:21:26;;;;;;;0.60;0.40;;;;;;;;;;5042338;28;20162;-85
2023/10/29 03:23:51;;;;;;;1.75;0.40;;;;;;;;;;5054087;28;20017;-85
2023/10/29 03:26:17;;;;;;;0.73;0.40;;;;;;;;;;5052994;28;20044;-86
2023/10/29 03:28:42;;;;;;;3.60;0.60;;;;;;;;;;5052963;28;20067;-85
2023/10/29 03:31:11;;;;;;;1.27;0.40;;;;;;;;;;5052370;28;20021;-85
2023/10/29 03:33:36;;;;;;;1.42;0.43;;;;;;;;;;5053145;28;20456;-85
2023/10/29 03:36:05;;;;;;;2.08;0.73;;;;;;;;;;5070811;28;20016;-85
2023/10/29 03:38:32;;;;;;;0.70;0.40;;;;;;;;;;5063282;28;20372;-85
2023/10/29 03:40:58;;;;;;;2.75;0.63;;;;;;;;;;5053003;28;20409;-86
2023/10/29 03:43:23;;;;;;;1.80;0.60;;;;;;;;;;5052328;28;20051;-85
2023/10/29 03:45:48;;;;;;;4.82;0.40;;;;;;;;;;5052529;28;20078;-86
2023/10/29 03:48:15;;;;;;;0.98;0.40;;;;;;;;;;5053677;28;20103;-85
2023/10/29 03:50:40;;;;;;;2.97;0.47;;;;;;;;;;5053994;28;20368;-85
2023/10/29 03:53:06;;;;;;;1.73;0.50;;;;;;;;;;5052185;28;20116;-85
2023/10/29 03:55:31;;;;;;;1.30;0.50;;;;;;;;;;5051975;28;20051;-85
2023/10/29 03:57:56;;;;;;;2.42;0.50;;;;;;;;;;5053428;28;20100;-85
2023/10/29 04:00:22;;;;;;;1.95;0.50;;;;;;;;;;5052245;28;20115;-84
2023/10/29 04:02:48;;;;;;;2.75;0.45;;;;;;;;;;5052273;28;20017;-86
2023/10/29 04:05:14;;;;;;;2.03;0.68;;;;;;;;;;5052158;28;20025;-85
2023/10/29 04:07:39;;;;;;;3.03;0.43;;;;;;;;;;5052110;28;20479;-86
2023/10/29 04:10:07;;;;;;;3.67;0.50;;;;;;;;;;5052073;28;20032;-85
2023/10/29 04:12:33;;;;;;;4.35;0.55;;;;;;;;;;5047932;28;20026;-85
2023/10/29 04:14:58;;;;;;;1.98;0.70;;;;;;;;;;5047774;28;20032;-85
2023/10/29 04:17:24;;;;;;;5.63;0.75;;;;;;;;;;5052460;28;20083;-86
2023/10/29 04:19:49;;;;;;;2.08;0.55;;;;;;;;;;5053310;28;20439;-85
2023/10/29 04:22:14;;;;;;;0.90;0.32;;;;;;;;;;5052078;28;20021;-85
2023/10/29 04:24:40;;;;;;;1.75;0.52;;;;;;;;;;5052136;28;20055;-86
2023/10/29 04:27:06;;;;;;;2.05;0.30;;;;;;;;;;5052200;28;20074;-85
2023/10/29 04:29:31;;;;;;;1.50;0.50;;;;;;;;;;5052001;28;20499;-85
2023/10/29 04:31:58;;;;;;;1.25;0.50;;;;;;;;;;5052101;28;20036;-85
2023/10/29 04:34:24;;;;;;;0.70;0.32;;;;;;;;;;5052096;28;20009;-85
2023/10/29 04:36:51;;;;;;;2.35;0.52;;;;;;;;;;5052322;28;20017;-85
2023/10/29 04:39:20;;;;;;;2.95;0.50;;;;;;;;;;5052331;28;20463;-85
2023/10/29 04:41:46;;;;;;;4.03;0.52;;;;;;;;;;5052010;28;20031;-86
2023/10/29 04:44:11;;;;;;;3.13;0.50;;;;;;;;;;5052235;28;20033;-86
2023/10/29 04:46:40;;;;;;;4.15;0.90;;;;;;;;;;5057876;28;20045;-86
2023/10/29 04:49:05;;;;;;;6.47;0.50;;;;;;;;;;5060047;28;20080;-85
2023/10/29 04:51:30;;;;;;;3.08;0.50;;;;;;;;;;5057213;28;20048;-85
2023/10/29 04:53:55;;;;;;;4.57;0.65;;;;;;;;;;5061862;28;20116;-85
2023/10/29 04:56:23;;;;;;;3.45;0.30;;;;;;;;;;5055995;28;20020;-86
2023/10/29 04:58:48;;;;;;;5.20;1.08;;;;;;;;;;5052876;28;20060;-86
2023/10/29 05:01:17;;;;;;;5.68;0.85;;;;;;;;;;5051757;28;20021;-85
2023/10/29 05:03:42;;;;;;;8.10;0.95;;;;;;;;;;5049852;28;20523;-85
2023/10/29 05:06:16;;;;;;;3.13;0.70;;;;;;;;;;5059472;28;20024;-85
2023/10/29 05:08:44;;;;;;;3.10;0.40;;;;;;;;;;5057103;28;20029;-88
2023/10/29 05:11:10;;;;;;;3.20;0.50;;;;;;;;;;5051902;28;20024;-86
2023/10/29 05:13:35;;;;;;;9.38;0.75;;;;;;;;;;5064261;28;20032;-86
2023/10/29 05:16:00;;;;;;;2.13;0.57;;;;;;;;;;5057468;28;20013;-85
2023/10/29 05:18:26;;;;;;;4.97;0.75;;;;;;;;;;5060043;28;20453;-86
2023/10/29 05:20:53;;;;;;;4.18;0.70;;;;;;;;;;5052054;28;20017;-85
2023/10/29 05:23:18;;;;;;;4.20;0.70;;;;;;;;;;5051988;28;20100;-85
2023/10/29 05:25:44;;;;;;;5.53;0.73;;;;;;;;;;5056039;28;20028;-85
2023/10/29 05:28:10;;;;;;;8.10;1.05;;;;;;;;;;5053527;28;20044;-87
2023/10/29 05:30:35;;;;;;;7.38;1.13;;;;;;;;;;5056028;28;20020;-86
2023/10/29 05:33:00;;;;;;;5.68;0.70;;;;;;;;;;5055589;28;20017;-84
2023/10/29 05:35:26;;;;;;;6.97;0.68;;;;;;;;;;5055707;28;20491;-85
2023/10/29 05:37:51;;;;;;;4.55;0.82;;;;;;;;;;5056469;28;20028;-85
2023/10/29 05:40:16;;;;;;;2.50;0.50;;;;;;;;;;5056016;28;20095;-85
2023/10/29 05:42:42;;;;;;;4.90;1.02;;;;;;;;;;5055770;28;20017;-85
2023/10/29 05:45:07;;;;;;;2.22;0.43;;;;;;;;;;5055714;28;20017;-85
2023/10/29 05:47:33;;;;;;;4.90;1.02;;;;;;;;;;5055507;28;20021;-85
2023/10/29 05:49:58;;;;;;;7.75;0.63;;;;;;;;;;5050615;28;20051;-85
2023/10/29 05:52:23;;;;;;;6.88;0.52;;;;;;;;;;5056726;28;20077;-84
2023/10/29 05:54:49;;;;;;;4.70;0.95;;;;;;;;;;5055067;28;20016;-85
2023/10/29 05:57:16;;;;;;;5.70;1.15;;;;;;;;;;5055384;28;20063;-85
2023/10/29 05:59:41;;;;;;;4.93;0.68;;;;;;;;;;5054864;28;20392;-86
2023/10/29 06:02:08;;;;;;;10.70;0.90;;;;;;;;;;5056680;28;20024;-86
2023/10/29 06:04:33;;;;;;;6.30;0.90;;;;;;;;;;5065701;28;20044;-85
2023/10/29 06:06:58;;;;;;;4.55;0.93;;;;;;;;;;5058344;28;20037;-86
2023/10/29 06:09:23;;;;;;;4.53;0.60;;;;;;;;;;5055515;28;20056;-86
2023/10/29 06:11:49;;;;;;;7.85;0.73;;;;;;;;;;5068719;28;20024;-84
2023/10/29 06:14:14;;;;;;;8.55;0.70;;;;;;;;;;5062448;28;20021;-85
2023/10/29 06:16:39;;;;;;;7.30;1.02;;;;;;;;;;5063265;28;20023;-85
2023/10/29 06:19:05;;;;;;;4.75;0.73;;;;;;;;;;5054399;28;20005;-84
2023/10/29 06:21:30;;;;;;;6.97;0.90;;;;;;;;;;5054414;28;20017;-85
2023/10/29 06:23:56;;;;;;;4.68;0.77;;;;;;;;;;5054383;28;20556;-84
2023/10/29 06:26:21;;;;;;;6.82;0.98;;;;;;;;;;5050683;28;20021;-85
2023/10/29 06:28:47;;;;;;;3.20;0.52;;;;;;;;;;5048605;28;20526;-85
2023/10/29 06:31:12;;;;;;;4.57;0.70;;;;;;;;;;5054261;28;20028;-84
2023/10/29 06:33:39;;;;;;;6.80;0.80;;;;;;;;;;5053888;28;20101;-85
2023/10/29 06:36:05;;;;;;;7.45;1.08;;;;;;;;;;5052895;28;20074;-85
2023/10/29 06:38:30;;;;;;;9.52;0.80;;;;;;;;;;5050557;28;20029;-86
2023/10/29 06:40:55;;;;;;;3.42;0.85;;;;;;;;;;5064528;28;20017;-85
2023/10/29 06:43:23;;;;;;;3.33;0.70;;;;;;;;;;5059890;28;20102;-85
2023/10/29 06:45:48;;;;;;;9.05;1.00;;;;;;;;;;5064816;28;20551;-85
2023/10/29 06:48:13;;;;;;;6.18;0.75;;;;;;;;;;5065787;28;20455;-85
2023/10/29 06:50:41;;;;;;;6.45;1.00;;;;;;;;;;5061748;28;20021;-84
2023/10/29 06:53:07;;;;;;;6.05;0.68;;;;;;;;;;5060186;28;20435;-84
2023/10/29 06:55:32;;;;;;;11.43;1.23;;;;;;;;;;5053454;28;20017;-84
2023/10/29 06:57:57;;;;;;;15.75;1.58;;;;;;;;;;5053730;28;20020;-85
2023/10/29 07:00:22;;;;;;;6.13;1.20;;;;;;;;;;5052930;28;20107;-85
2023/10/29 07:02:48;;;;;;;8.55;0.90;;;;;;;;;;5053254;28;20037;-86
2023/10/29 07:05:14;;;;;;;5.80;0.70;;;;;;;;;;5057037;28;20033;-85
2023/10/29 07:07:39;;;;;;;10.15;1.25;;;;;;;;;;5073270;28;20025;-87
2023/10/29 07:10:05;;;;;;;7.43;0.95;;;;;;;;;;5054176;28;20078;-85
2023/10/29 07:12:31;;;;;;;9.23;1.13;;;;;;;;;;5053150;28;20032;-86
2023/10/29 07:14:57;;;;;;;16.85;1.27;;;;;;;;;;5052592;28;20036;-86
2023/10/29 07:17:23;;;;;;;6.07;1.13;;;;;;;;;;5054498;28;20024;-85
2023/10/29 07:19:49;;;;;;;9.25;0.85;;;;;;;;;;5052898;28;20414;-85
2023/10/29 07:22:14;;;;;;;7.75;0.90;;;;;;;;;;5052999;28;20009;-85
2023/10/29 07:24:39;;;;;;;7.65;1.08;;;;;;;;;;5052933;28;20475;-86
2023/10/29 07:27:04;;;;;;;11.02;1.00;;;;;;;;;;5053000;28;20032;-85
2023/10/29 07:29:30;;;;;;;3.30;0.65;;;;;;;;;;5053304;28;20415;-86
2023/10/29 07:31:56;;;;;;;8.00;1.00;;;;;;;;;;5053997;28;20027;-86
2023/10/29 07:34:21;;;;;;;11.30;0.80;;;;;;;;;;5068801;28;20522;-87
2023/10/29 07:36:46;;;;;;;7.00;1.17;;;;;;;;;;5054841;28;20432;-86
2023/10/29 07:39:11;;;;;;;9.98;0.65;;;;;;;;;;5053820;28;20032;-86
2023/10/29 07:41:37;;;;;;;7.22;0.75;;;;;;;;;;5053635;28;20017;-85
2023/10/29 07:44:02;;;;;;;6.00;0.93;;;;;;;;;;5054967;28;20053;-87
2023/10/29 07:46:27;;;;;;;11.63;1.35;;;;;;;;;;5054521;28;20020;-87
2023/10/29 07:48:53;;;;;;;3.92;0.77;;;;;;;;;;5053830;28;20013;-86
2023/10/29 07:51:18;;;;;;;10.85;1.50;;;;;;;;;;5067470;28;20021;-86
2023/10/29 07:53:43;;;;;;;4.97;0.63;;;;;;;;;;5054451;28;20021;-86
2023/10/29 07:56:13;;;;;;;5.10;0.98;;;;;;;;;;5053423;28;20464;-86
2023/10/29 07:58:39;;;;;;;4.55;0.88;;;;;;;;;;5041421;28;20033;-86
2023/10/29 08:01:14;;;;;;;7.00;0.70;;;;;;;;;;5053475;28;20104;-86
2023/10/29 08:03:43;;;;;;;5.00;0.73;;;;;;;;;;5038420;28;20014;-85
2023/10/29 08:06:09;;;;;;;4.32;0.90;;;;;;;;;;5051902;28;20399;-85
2023/10/29 08:08:34;;;;;;;5.97;0.90;;;;;;;;;;5055307;28;20207;-84
2023/10/29 08:10:59;;;;;;;7.35;0.60;;;;;;;;;;5057953;28;20029;-85
2023/10/29 08:13:25;;;;;;;6.38;1.08;;;;;;;;;;5051712;28;20032;-85
2023/10/29 08:15:50;;;;;;;8.00;0.85;;;;;;;;;;5052327;28;20481;-86
2023/10/29 08:18:16;;;;;;;11.65;0.73;;;;;;;;;;5052711;28;20045;-86
2023/10/29 08:20:41;;;;;;;10.40;1.10;;;;;;;;;;5052191;28;20137;-85
2023/10/29 08:23:10;;;;;;;6.13;1.02;;;;;;;;;;5051898;28;20032;-85
2023/10/29 08:25:35;;;;;;;10.55;0.90;;;;;;;;;;5052063;28;20518;-86
2023/10/29 08:28:01;;;;;;;9.07;1.05;;;;;;;;;;5052004;28;20021;-86
2023/10/29 08:30:26;;;;;;;3.88;0.60;;;;;;;;;;5051884;28;20101;-86
2023/10/29 08:32:51;;;;;;;8.27;1.17;;;;;;;;;;5052171;28;20109;-86
2023/10/29 08:35:17;;;;;;;8.52;1.05;;;;;;;;;;5052851;28;20033;-86
2023/10/29 08:37:44;;;;;;;9.05;0.80;;;;;;;;;;5049828;28;20059;-86
2023/10/29 08:40:10;;;;;;;10.60;1.25;;;;;;;;;;5050330;28;20021;-85
2023/10/29 08:42:36;;;;;;;7.47;1.20;;;;;;;;;;5051637;28;20025;-89
2023/10/29 08:45:01;;;;;;;7.85;1.13;;;;;;;;;;5053174;28;20029;-86
2023/10/29 08:47:26;;;;;;;8.60;0.60;;;;;;;;;;5053643;28;20024;-84
2023/10/29 08:49:52;;;;;;;8.77;1.00;;;;;;;;;;5054984;28;20101;-85
2023/10/29 08:52:17;;;;;;;6.63;0.80;;;;;;;;;;5054618;28;20028;-86
2023/10/29 08:54:43;;;;;;;8.88;0.85;;;;;;;;;;5050847;28;20097;-85
2023/10/29 08:57:08;;;;;;;7.47;1.05;;;;;;;;;;5046523;28;20020;-86
2023/10/29 08:59:35;;;;;;;7.47;1.02;;;;;;;;;;5055844;28;20107;-86
2023/10/29 09:02:00;;;;;;;11.65;1.05;;;;;;;;;;5057208;28;20024;-86
2023/10/29 09:04:26;;;;;;;2.55;0.55;;;;;;;;;;5057827;28;20021;-85
2023/10/29 09:06:51;;;;;;;7.38;1.25;;;;;;;;;;5056321;28;20009;-86
2023/10/29 09:09:16;;;;;;;8.13;0.85;;;;;;;;;;5056439;28;20348;-85
2023/10/29 09:11:44;;;;;;;5.93;0.77;;;;;;;;;;5057028;28;20028;-85
2023/10/29 09:14:11;;;;;;;6.82;0.90;;;;;;;;;;5056551;28;20029;-86
2023/10/29 09:16:36;;;;;;;6.65;1.05;;;;;;;;;;5056239;28;20043;-85
2023/10/29 09:19:01;;;;;;;5.93;0.88;;;;;;;;;;5056077;28;20071;-86
2023/10/29 09:21:27;;;;;;;6.88;0.85;;;;;;;;;;5056729;28;20464;-85
2023/10/29 09:23:52;;;;;;;10.23;1.08;;;;;;;;;;5046307;28;20052;-85
2023/10/29 09:26:17;;;;;;;9.38;1.00;;;;;;;;;;5051492;28;20024;-86
2023/10/29 09:28:42;;;;;;;7.05;1.23;;;;;;;;;;5053356;28;20481;-85
2023/10/29 09:31:08;;;;;;;10.10;1.33;;;;;;;;;;5058591;28;20048;-87
2023/10/29 09:33:33;;;;;;;7.93;0.57;;;;;;;;;;5056680;28;20021;-86
2023/10/29 09:36:00;;;;;;;3.00;0.60;;;;;;;;;;5055937;28;20029;-86
2023/10/29 09:38:25;;;;;;;6.07;0.90;;;;;;;;;;5051729;28;20054;-86
2023/10/29 09:40:51;;;;;;;8.23;0.98;;;;;;;;;;5052849;28;20013;-84
2023/10/29 09:43:20;;;;;;;3.05;0.70;;;;;;;;;;5053022;28;20025;-85
2023/10/29 09:45:45;;;;;;;9.48;0.93;;;;;;;;;;5055040;28;20029;-85
2023/10/29 09:48:15;;;;;;;8.70;0.90;;;;;;;;;;5056702;28;20105;-85
2023/10/29 09:50:42;;;;;;;6.53;0.90;;;;;;;;;;5054777;28;20028;-85
2023/10/29 09:53:07;;;;;;;8.85;1.00;;;;;;;;;;5054837;28;20017;-85
2023/10/29 09:55:42;;;;;;;14.80;1.90;;;;;;;;;;5056045;28;20099;-85
2023/10/29 09:58:07;;;;;;;7.88;0.80;;;;;;;;;;5054766;28;20021;-85
2023/10/29 10:00:32;;;;;;;10.10;1.15;;;;;;;;;;5056022;28;20009;-85
2023/10/29 10:02:58;;;;;;;3.88;0.90;;;;;;;;;;5054308;28;20112;-85
2023/10/29 10:05:25;;;;;;;7.70;1.10;;;;;;;;;;5055671;28;20025;-85
2023/10/29 10:07:53;;;;;;;9.82;1.20;;;;;;;;;;5054420;28;20025;-86
2023/10/29 10:10:20;;;;;;;9.23;0.80;;;;;;;;;;5054668;28;20025;-85
2023/10/29 10:12:46;;;;;;;8.65;1.33;;;;;;;;;;5054502;28;20033;-85
2023/10/29 10:15:13;;;;;;;8.60;1.33;;;;;;;;;;5055555;28;20073;-85
2023/10/29 10:17:38;;;;;;;11.15;0.98;;;;;;;;;;5054048;28;20044;-85
2023/10/29 10:20:08;;;;;;;5.57;1.00;;;;;;;;;;5054171;28;20009;-85
2023/10/29 10:22:36;;;;;;;7.57;0.80;;;;;;;;;;5054111;28;20017;-85
2023/10/29 10:25:02;;;;;;;10.75;1.25;;;;;;;;;;5054733;28;20480;-85
2023/10/29 10:27:29;;;;;;;5.45;0.73;;;;;;;;;;5054503;28;20031;-86
2023/10/29 10:29:55;;;;;;;7.35;1.17;;;;;;;;;;5051329;28;20013;-85
2023/10/29 10:32:26;;;;;;;7.50;0.68;;;;;;;;;;5049143;28;20079;-86
2023/10/29 10:34:52;;;;;;;9.23;1.48;;;;;;;;;;5054273;28;20095;-86
2023/10/29 10:37:17;;;;;;;6.53;1.05;;;;;;;;;;5053931;28;20032;-83
2023/10/29 10:39:42;;;;;;;6.13;0.90;;;;;;;;;;5054071;28;20434;-85
2023/10/29 10:42:07;;;;;;;10.02;1.08;;;;;;;;;;5053959;28;20120;-85
2023/10/29 10:44:35;;;;;;;7.55;1.00;;;;;;;;;;5053942;28;20025;-86
2023/10/29 10:47:02;;;;;;;11.88;1.10;;;;;;;;;;5054086;28;20017;-85
2023/10/29 10:49:31;;;;;;;6.75;0.90;;;;;;;;;;5054810;28;20455;-85
2023/10/29 10:51:58;;;;;;;7.43;1.55;;;;;;;;;;5054312;28;20437;-86
2023/10/29 10:54:24;;;;;;;10.98;1.33;;;;;;;;;;5053684;28;20025;-86
2023/10/29 10:56:50;;;;;;;7.93;1.20;;;;;;;;;;5053756;28;20021;-86
2023/10/29 10:59:16;;;;;;;7.85;1.10;;;;;;;;;;5054692;28;20020;-86
2023/10/29 11:01:41;;;;;;;8.80;0.80;;;;;;;;;;5053072;28;20537;-85
2023/10/29 11:04:08;;;;;;;4.07;0.68;;;;;;;;;;5053563;28;20021;-86
2023/10/29 11:06:34;;;;;;;7.38;0.75;;;;;;;;;;5052986;28;20396;-85
2023/10/29 11:08:59;;;;;;;11.57;1.02;;;;;;;;;;5053025;28;20032;-85
2023/10/29 11:11:45;;;;;;;9.00;0.93;;;;;;;;;;5062069;28;20008;-86
2023/10/29 11:14:10;;;;;;;5.15;0.70;;;;;;;;;;5055210;28;20037;-86
2023/10/29 11:16:48;;;;;;;5.15;0.63;;;;;;;;;;5061487;28;20094;-86
2023/10/29 11:19:32;;;;;;;6.10;0.98;;;;;;;;;;5054717;28;20044;-87
2023/10/29 11:22:16;;;;;;;8.32;0.68;;;;;;;;;;5051943;28;20031;-88
2023/10/29 11:24:42;;;;;;;9.00;1.75;;;;;;;;;;5053536;28;20029;-86
2023/10/29 11:27:26;;;;;;;7.70;0.68;;;;;;;;;;5053118;28;20084;-87
2023/10/29 11:29:51;;;;;;;8.90;1.65;;;;;;;;;;5050687;28;20040;-86
2023/10/29 11:32:23;;;;;;;9.50;1.02;;;;;;;;;;5052533;28;20025;-85
2023/10/29 11:34:48;;;;;;;10.02;1.60;;;;;;;;;;5040906;28;20052;-86
2023/10/29 11:37:32;;;;;;;6.10;1.02;;;;;;;;;;5052679;28;20020;-85
2023/10/29 11:40:17;;;;;;;4.30;0.80;;;;;;;;;;5053672;28;20102;-85
2023/10/29 11:42:44;;;;;;;8.50;0.70;;;;;;;;;;5046336;28;20044;-85
2023/10/29 11:45:27;;;;;;;5.18;0.93;;;;;;;;;;5044127;28;20491;-86
2023/10/29 11:48:14;;;;;;;8.80;0.70;;;;;;;;;;5050163;28;20021;-85
2023/10/29 11:50:40;;;;;;;4.22;1.02;;;;;;;;;;5053408;28;20021;-86
2023/10/29 11:53:06;;;;;;;5.18;0.82;;;;;;;;;;5050141;28;20040;-85
2023/10/29 11:55:44;;;;;;;5.68;1.27;;;;;;;;;;5047004;28;20111;-86
2023/10/29 11:58:09;;;;;;;6.07;0.98;;;;;;;;;;5052222;28;20013;-86
2023/10/29 12:00:38;;;;;;;7.70;0.75;;;;;;;;;;5052250;28;20017;-86
2023/10/29 12:03:04;;;;;;;9.63;1.20;;;;;;;;;;5052637;28;20098;-88
2023/10/29 12:05:29;;;;;;;7.75;0.80;;;;;;;;;;5052909;28;20025;-86
2023/10/29 12:07:58;;;;;;;9.48;0.98;;;;;;;;;;5054253;28;20349;-87
2023/10/29 12:10:23;;;;;;;4.80;0.77;;;;;;;;;;5052499;28;20431;-89
2023/10/29 12:12:55;;;;;;;5.18;0.77;;;;;;;;;;5045110;28;20033;-88
2023/10/29 12:15:20;;;;;;;5.45;0.88;;;;;;;;;;5058508;28;20392;-88
2023/10/29 12:17:46;;;;;;;6.20;1.17;;;;;;;;;;5060862;28;20021;-88
2023/10/29 12:20:29;;;;;;;7.03;1.20;;;;;;;;;;5054330;28;20043;-88
2023/10/29 12:22:54;;;;;;;4.50;0.43;;;;;;;;;;5042542;28;20028;-89
2023/10/29 12:25:21;;;;;;;6.82;0.80;;;;;;;;;;5054950;28;20028;-89
2023/10/29 12:27:47;;;;;;;11.18;1.55;;;;;;;;;;5047257;28;20407;-88
2023/10/29 12:30:31;;;;;;;5.10;0.82;;;;;;;;;;5054731;28;20037;-88
2023/10/29 12:33:16;;;;;;;10.60;0.93;;;;;;;;;;5053460;28;20132;-88
2023/10/29 12:35:42;;;;;;;12.25;1.02;;;;;;;;;;5065276;28;20037;-88
2023/10/29 12:38:09;;;;;;;10.07;0.98;;;;;;;;;;5048078;28;20353;-88
2023/10/29 12:40:34;;;;;;;12.13;0.90;;;;;;;;;;5053713;28;20057;-89
2023/10/29 12:43:00;;;;;;;6.75;1.15;;;;;;;;;;5052598;28;20020;-87
2023/10/29 12:45:32;;;;;;;8.60;1.13;;;;;;;;;;5052852;28;20029;-87
2023/10/29 12:48:16;;;;;;;3.75;0.88;;;;;;;;;;5038486;28;20059;-87
2023/10/29 12:50:45;;;;;;;11.38;1.10;;;;;;;;;;5052769;28;20025;-86
2023/10/29 12:53:10;;;;;;;5.80;0.60;;;;;;;;;;5052164;28;20021;-88
2023/10/29 12:55:42;;;;;;;5.72;0.90;;;;;;;;;;5052590;28;20028;-87
2023/10/29 12:58:07;;;;;;;7.10;0.90;;;;;;;;;;5052712;28;20047;-88
2023/10/29 13:00:33;;;;;;;6.78;1.25;;;;;;;;;;5052696;28;20088;-87
2023/10/29 13:02:58;;;;;;;7.13;1.08;;;;;;;;;;5050724;28;20364;-88
2023/10/29 13:05:23;;;;;;;6.97;0.93;;;;;;;;;;5052271;28;20028;-88
2023/10/29 13:07:48;;;;;;;6.38;0.82;;;;;;;;;;5043802;28;20022;-88
2023/10/29 13:10:16;;;;;;;7.53;1.60;;;;;;;;;;5053958;28;20016;-88
2023/10/29 13:12:43;;;;;;;7.57;1.67;;;;;;;;;;5053628;28;20033;-89
2023/10/29 13:15:08;;;;;;;3.15;1.00;;;;;;;;;;5053117;28;20388;-88
2023/10/29 13:17:34;;;;;;;8.43;1.40;;;;;;;;;;5058547;28;20097;-88
2023/10/29 13:19:59;;;;;;;7.82;0.77;;;;;;;;;;5062272;28;20082;-88
2023/10/29 13:22:24;;;;;;;7.53;1.00;;;;;;;;;;5054303;28;20021;-88
2023/10/29 13:24:49;;;;;;;4.45;0.60;;;;;;;;;;5054372;28;20025;-89
2023/10/29 13:27:15;;;;;;;1.95;0.63;;;;;;;;;;5053276;28;20036;-89
2023/10/29 13:29:40;;;;;;;1.02;0.30;;;;;;;;;;5051010;28;20052;-89
2023/10/29 13:32:06;;;;;;;2.60;0.45;;;;;;;;;;5061629;28;20035;-89
2023/10/29 13:34:31;;;;;;;3.05;0.57;;;;;;;;;;5056793;28;20122;-89
2023/10/29 13:36:56;;;;;;;1.27;0.50;;;;;;;;;;5053345;28;20012;-89
2023/10/29 13:39:22;;;;;;;0.28;0.20;;;;;;;;;;5052435;28;20095;-89
2023/10/29 13:41:48;;;;;;;2.70;0.65;;;;;;;;;;5053451;28;20043;-88
2023/10/29 13:44:15;;;;;;;1.10;0.30;;;;;;;;;;5052210;28;20071;-88
2023/10/29 13:46:41;;;;;;;1.48;0.40;;;;;;;;;;5068439;28;20017;-90
2023/10/29 13:49:06;;;;;;;3.53;0.52;;;;;;;;;;5056943;28;20023;-88
2023/10/29 13:51:31;;;;;;;0.88;0.30;;;;;;;;;;5055496;28;20361;-89
2023/10/29 13:53:56;;;;;;;2.53;0.50;;;;;;;;;;5070703;28;20024;-89
2023/10/29 13:56:22;;;;;;;2.72;0.70;;;;;;;;;;5055487;28;20032;-88
2023/10/29 13:58:48;;;;;;;3.53;0.50;;;;;;;;;;5055730;28;20080;-88
2023/10/29 14:01:20;;;;;;;3.53;0.57;;;;;;;;;;5069176;28;20013;-88
2023/10/29 14:03:46;;;;;;;1.48;0.40;;;;;;;;;;5068332;28;20115;-88
2023/10/29 14:06:12;;;;;;;3.67;1.23;;;;;;;;;;5060875;28;20035;-88
2023/10/29 14:08:39;;;;;;;1.90;0.80;;;;;;;;;;5063895;28;20021;-87
2023/10/29 14:11:05;;;;;;;2.47;1.02;;;;;;;;;;5055507;28;20021;-88
2023/10/29 14:13:30;;;;;;;2.10;0.80;;;;;;;;;;5055312;28;20031;-87
2023/10/29 14:15:57;;;;;;;1.00;0.55;;;;;;;;;;5056760;28;20052;-88
2023/10/29 14:18:22;;;;;;;1.23;0.60;;;;;;;;;;5055053;28;20044;-87
2023/10/29 14:20:48;;;;;;;1.38;0.40;;;;;;;;;;5055162;28;20078;-87
2023/10/29 14:23:13;;;;;;;2.67;0.80;;;;;;;;;;5055868;28;20104;-88
2023/10/29 14:25:38;;;;;;;2.40;0.80;;;;;;;;;;5055058;28;20048;-86
2023/10/29 14:28:04;;;;;;;1.38;0.60;;;;;;;;;;5054864;28;20028;-87
2023/10/29 14:30:30;;;;;;;1.55;0.60;;;;;;;;;;5054776;28;20020;-88
2023/10/29 14:32:55;;;;;;;4.68;0.80;;;;;;;;;;5053215;28;20063;-86
2023/10/29 14:35:20;;;;;;;3.83;0.50;;;;;;;;;;5054832;28;20043;-93
2023/10/29 14:37:49;;;;;;;5.53;0.63;;;;;;;;;;5059518;28;20095;-91